Latest Weather Observations for Gympie

IDQ60801

Issued at 11:52 pm EST Monday 25 March 2019 (issued every 10 minutes, with the page automatically refreshed every 10 minutes)

About weather observations | Map of weather stations | Latest weather observations for QLD | Other Formats
Station Details ID: 040093 Name: GYMPIE Lat: -26.18 Lon: 152.64 Height: 64.5 m
Data from the previous 72 hours. | See also: Recent months at Gympie
Date/Time
EST
Temp
°C
App
Temp
°C
Dew
Point
°C
Rel
Hum
%
Delta-T
°C
Wind Press
QNH
hPa
Press
MSL
hPa
Rain since
9am
mm
Dir  Spd
km/h
Gust
km/h
Spd
kts
Gust
kts
25/11:30pm 22.9 27.4 21.5 92 0.9 CALM 0 0 0 0 1015.9 1015.6 0.0
25/11:00pm 23.2 27.7 21.6 91 1.1 CALM 0 0 0 0 1015.8 1015.5 0.0
25/10:30pm 23.5 28.0 21.6 89 1.3 CALM 0 0 0 0 1015.9 1015.6 0.0
25/10:00pm 23.7 28.3 21.8 89 1.3 CALM 0 0 0 0 1016.0 1015.7 0.0
25/09:30pm 24.1 28.8 22.0 88 1.4 CALM 0 0 0 0 1016.1 1015.8 0.0
25/09:00pm 23.6 28.3 21.9 90 1.1 CALM 0 0 0 0 1016.0 1015.7 0.0
25/08:30pm 24.1 28.6 21.6 86 1.7 CALM 0 0 0 0 1015.5 1015.2 0.0
25/08:00pm 25.2 29.4 21.7 81 2.3 E 2 6 1 3 1015.4 1015.1 0.0
25/07:30pm 25.3 29.2 21.2 78 2.7 SSE 2 6 1 3 1015.1 1014.8 0.0
25/07:00pm 25.9 29.5 21.3 76 3.1 ENE 4 11 2 6 1014.5 1014.2 0.0
25/06:30pm 26.5 30.3 21.7 75 3.2 ENE 4 6 2 3 1014.3 1014.0 0.0
25/06:00pm 27.4 31.3 21.9 72 3.7 NE 4 9 2 5 1013.7 1013.4 0.0
25/05:30pm 28.1 31.2 22.1 70 4.0 NNE 9 17 5 9 1013.1 1012.8 0.0
25/05:00pm 28.8 32.0 22.3 68 4.4 NE 9 17 5 9 1012.9 1012.6 0.0
25/04:30pm 29.8 33.0 22.3 64 5.1 NE 9 17 5 9 1012.6 1012.3 0.0
25/04:00pm 32.0 33.9 18.9 45 8.6 NNE 7 15 4 8 1012.4 1012.1 0.0
25/03:30pm 32.2 34.0 18.8 45 8.7 NNW 7 15 4 8 1012.2 1011.9 0.0
25/03:00pm 32.5 34.8 19.4 46 8.6 NNW 6 11 3 6 1012.5 1012.2 0.0
25/02:30pm 31.6 33.2 18.2 44 8.7 NW 7 13 4 7 1012.6 1012.3 0.0
25/02:00pm 31.8 33.0 19.1 47 8.3 NW 11 19 6 10 1012.9 1012.6 0.0
25/01:30pm 31.5 33.0 18.8 46 8.3 N 9 15 5 8 1013.1 1012.8 0.0
25/01:00pm 31.5 33.7 19.5 49 7.9 NNW 7 17 4 9 1013.5 1013.2 0.0
25/12:30pm 30.8 32.3 18.8 48 7.8 NNW 9 17 5 9 1014.0 1013.7 0.0
25/12:00pm 30.3 32.1 19.6 52 7.0 NNW 9 15 5 8 1014.4 1014.1 0.0
25/11:30am 29.9 31.3 19.6 54 6.7 N 11 19 6 10 1014.9 1014.6 0.0
25/11:00am 29.9 31.6 20.2 56 6.4 N 11 19 6 10 1015.2 1014.9 0.0
25/10:30am 28.9 30.7 21.1 62 5.2 NNW 13 22 7 12 1015.6 1015.3 0.0
25/10:00am 28.3 29.8 20.6 63 5.1 NNW 13 22 7 12 1016.0 1015.7 0.0
25/09:30am 27.5 29.7 21.8 71 3.8 NNW 13 20 7 11 1016.4 1016.1 0.0
25/09:00am 26.6 28.9 22.0 76 3.1 NW 13 19 7 10 1016.3 1016.0 0.0
25/08:30am 26.1 30.9 22.8 82 2.2 SSW 2 4 1 2 1016.3 1016.0 0.0
25/08:00am 24.8 29.9 22.7 88 1.4 CALM 0 0 0 0 1016.2 1015.9 0.0
25/07:30am 22.9 27.5 21.7 93 0.8 CALM 0 0 0 0 1016.0 1015.7 0.0
25/07:00am 21.5 25.6 20.8 96 0.5 CALM 0 0 0 0 1015.6 1015.3 0.0
25/06:30am 21.1 25.2 20.8 98 0.2 CALM 0 0 0 0 1015.7 1015.4 0.0
25/06:00am 20.7 24.4 20.0 96 0.4 CALM 0 0 0 0 1015.4 1015.1 0.0
25/05:30am 21.1 25.1 20.6 97 0.3 CALM 0 0 0 0 1015.2 1014.9 0.0
25/05:00am 21.2 25.1 20.4 95 0.5 CALM 0 0 0 0 1015.0 1014.7 0.0
25/04:30am 21.7 25.9 21.0 96 0.5 CALM 0 0 0 0 1014.7 1014.4 0.0
25/04:00am 21.8 26.0 21.0 95 0.5 CALM 0 0 0 0 1014.6 1014.3 0.0
25/03:30am 22.2 26.6 21.4 95 0.5 CALM 0 0 0 0 1014.5 1014.2 0.0
25/03:00am 22.3 26.2 21.1 93 0.8 N 2 2 1 1 1014.4 1014.1 0.0
25/02:30am 22.9 26.8 21.9 94 0.7 N 4 6 2 3 1014.2 1013.9 0.0
25/02:00am 23.4 27.7 22.0 92 0.9 N 2 4 1 2 1014.2 1013.9 0.0
25/01:30am 23.4 28.0 21.8 91 1.1 CALM 0 0 0 0 1014.5 1014.2 0.0
25/01:00am 24.1 28.9 22.2 89 1.3 CALM 0 0 0 0 1014.5 1014.2 0.0
25/12:30am 24.1 29.1 22.5 91 1.1 CALM 0 4 0 2 1015.0 1014.7 0.0
25/12:00am 24.3 29.2 22.4 89 1.3 CALM 0 0 0 0 1015.0 1014.7 0.0
 
Date/Time
EST
Temp
°C
App
Temp
°C
Dew
Point
°C
Rel
Hum
%
Delta-T
°C
Wind Press
QNH
hPa
Press
MSL
hPa
Rain since
9am
mm
Dir  Spd
km/h
Gust
km/h
Spd
kts
Gust
kts
24/11:30pm 24.3 29.2 22.4 89 1.3 CALM 0 0 0 0 1015.3 1015.0 0.0
24/11:00pm 24.3 29.2 22.4 89 1.3 CALM 0 0 0 0 1015.1 1014.8 0.0
24/10:30pm 24.1 29.0 22.4 90 1.1 CALM 0 0 0 0 1015.3 1015.0 0.0
24/10:00pm 24.1 28.8 22.0 88 1.4 CALM 0 0 0 0 1015.5 1015.2 0.0
24/09:30pm 24.6 28.8 22.5 88 1.4 NNW 4 6 2 3 1015.3 1015.0 0.0
24/09:00pm 25.0 29.1 22.3 85 1.8 N 4 7 2 4 1015.0 1014.7 0.0
24/08:30pm 25.1 30.0 22.4 85 1.8 CALM 0 0 0 0 1014.7 1014.4 0.0
24/08:00pm 25.7 30.4 22.6 83 2.1 NE 2 7 1 4 1014.4 1014.1 0.0
24/07:30pm 26.1 30.0 22.6 81 2.4 ENE 6 11 3 6 1014.2 1013.9 0.0
24/07:00pm 27.0 30.5 22.8 78 2.9 NE 9 15 5 8 1013.9 1013.6 0.0
24/06:30pm 28.3 32.3 22.8 72 3.7 NE 6 17 3 9 1013.4 1013.1 0.0
24/06:00pm 29.5 33.2 22.5 66 4.8 NE 7 13 4 7 1013.2 1012.9 0.0
24/05:30pm 30.9 34.6 22.5 61 5.7 NE 7 15 4 8 1012.9 1012.6 0.0
24/05:00pm 32.5 34.7 20.4 49 8.1 NE 9 15 5 8 1012.5 1012.2 0.0
24/04:30pm 33.4 34.7 17.5 38 10.2 NE 7 17 4 9 1012.4 1012.1 0.0
24/04:00pm 34.2 36.0 18.3 39 10.4 ENE 6 13 3 7 1012.3 1012.0 0.0
24/03:30pm 34.0 35.7 18.1 39 10.3 N 6 9 3 5 1012.1 1011.8 0.0
24/03:00pm 33.8 36.7 18.3 39 10.1 CALM 0 6 0 3 1012.3 1012.0 0.0
24/02:30pm 33.9 36.8 20.6 45 8.9 NW 6 9 3 5 1012.6 1012.3 0.0
24/02:00pm 33.5 36.4 19.9 44 9.0 WSW 4 9 2 5 1012.9 1012.6 0.0
24/01:30pm 33.0 35.7 19.5 45 8.9 W 4 9 2 5 1013.2 1012.9 0.0
24/01:00pm 32.5 34.2 19.4 46 8.6 NW 9 15 5 8 1013.5 1013.2 0.0
24/12:30pm 32.0 34.7 20.3 50 7.8 NW 6 11 3 6 1013.9 1013.6 0.0
24/12:00pm 31.4 34.9 20.4 52 7.3 NW 2 9 1 5 1014.4 1014.1 0.0
24/11:30am 31.1 34.7 21.3 56 6.6 NW 4 11 2 6 1014.9 1014.6 0.0
24/11:00am 30.2 33.6 21.6 60 5.8 NE 6 13 3 7 1015.5 1015.2 0.0
24/10:30am 29.3 32.3 21.3 62 5.4 N 7 13 4 7 1016.0 1015.7 0.0
24/10:00am 28.6 31.3 21.4 65 4.8 NNW 9 15 5 8 1016.4 1016.1 0.0
24/09:30am 27.8 29.2 20.4 64 4.9 NNW 13 17 7 9 1016.4 1016.1 0.0
24/09:00am 27.1 30.0 21.8 73 3.5 NNW 9 15 5 8 1016.5 1016.2 0.0
24/08:30am 26.2 30.4 22.5 80 2.5 WNW 4 9 2 5 1016.4 1016.1 0.0
24/08:00am 24.2 29.3 22.6 91 1.1 CALM 0 0 0 0 1016.2 1015.9 0.0
24/07:30am 22.5 26.9 21.3 93 0.8 CALM 0 0 0 0 1016.0 1015.7 0.0
24/07:00am 21.6 25.8 20.9 96 0.5 CALM 0 0 0 0 1016.0 1015.7 0.0
24/06:30am 20.7 24.5 20.2 97 0.3 CALM 0 0 0 0 1015.7 1015.4 0.0
24/06:00am 20.6 24.4 20.1 97 0.3 CALM 0 0 0 0 1015.6 1015.3 0.0
24/05:30am 20.9 24.9 20.6 98 0.2 CALM 0 0 0 0 1015.4 1015.1 0.0
24/05:00am 21.1 25.1 20.6 97 0.3 CALM 0 0 0 0 1015.0 1014.7 0.0
24/04:30am 21.4 25.6 20.9 97 0.3 CALM 0 0 0 0 1014.8 1014.5 0.0
24/04:00am 21.4 25.5 20.7 96 0.5 CALM 0 0 0 0 1014.5 1014.2 0.0
24/03:30am 21.8 26.2 21.3 97 0.3 CALM 0 0 0 0 1014.4 1014.1 0.0
24/03:00am 22.1 26.5 21.3 95 0.5 CALM 0 0 0 0 1014.5 1014.2 0.0
24/02:30am 22.3 26.8 21.5 95 0.5 CALM 0 0 0 0 1014.5 1014.2 0.0
24/02:00am 22.4 26.8 21.4 94 0.7 CALM 0 0 0 0 1014.4 1014.1 0.0
24/01:30am 22.8 27.4 21.8 94 0.7 CALM 0 0 0 0 1014.6 1014.3 0.0
24/01:00am 22.8 27.4 21.8 94 0.7 CALM 0 0 0 0 1015.1 1014.8 0.0
24/12:30am 22.8 27.2 21.4 92 0.9 CALM 0 0 0 0 1015.2 1014.9 0.0
24/12:00am 22.6 26.9 21.1 91 1.0 CALM 0 0 0 0 1015.4 1015.1 0.0
 
Date/Time
EST
Temp
°C
App
Temp
°C
Dew
Point
°C
Rel
Hum
%
Delta-T
°C
Wind Press
QNH
hPa
Press
MSL
hPa
Rain since
9am
mm
Dir  Spd
km/h
Gust
km/h
Spd
kts
Gust
kts
23/11:30pm 23.1 27.6 21.5 91 1.1 CALM 0 0 0 0 1015.5 1015.2 0.0
23/11:00pm 23.3 27.9 21.7 91 1.1 CALM 0 0 0 0 1015.6 1015.3 0.0
23/10:30pm 22.7 26.9 21.0 90 1.1 CALM 0 0 0 0 1015.6 1015.3 0.0
23/10:00pm 23.3 27.7 21.4 89 1.3 CALM 0 0 0 0 1015.6 1015.3 0.0
23/09:30pm 23.1 27.1 21.4 90 1.1 NNW 2 6 1 3 1015.5 1015.2 0.0
23/09:00pm 23.6 28.2 21.7 89 1.3 CALM 0 0 0 0 1015.7 1015.4 0.0
23/08:30pm 24.0 28.5 21.5 86 1.7 CALM 0 0 0 0 1015.3 1015.0 0.0
23/08:00pm 25.4 29.9 21.5 79 2.6 CALM 0 0 0 0 1015.1 1014.8 0.0
23/07:30pm 25.7 29.5 21.6 78 2.7 ENE 4 6 2 3 1014.7 1014.4 0.0
23/07:00pm 26.2 29.7 21.8 77 2.9 NE 6 11 3 6 1014.4 1014.1 0.0
23/06:30pm 27.0 30.7 22.2 75 3.2 NE 6 11 3 6 1013.9 1013.6 0.0
23/06:00pm 28.2 31.6 22.0 69 4.2 NE 7 15 4 8 1013.5 1013.2 0.0
23/05:30pm 31.4 33.6 19.1 48 8.0 NNE 6 15 3 8 1012.8 1012.5 0.0
23/05:00pm 32.2 35.4 20.5 50 7.8 NNW 4 6 2 3 1012.6 1012.3 0.0
23/04:30pm 32.2 34.5 19.5 47 8.4 NNW 6 9 3 5 1012.5 1012.2 0.0
23/04:00pm 32.0 34.1 18.9 45 8.6 NNW 6 7 3 4 1012.6 1012.3 0.0
23/03:30pm 32.5 35.5 20.1 48 8.2 NE 4 7 2 4 1012.6 1012.3 0.0
23/03:00pm 31.7 33.6 19.0 47 8.3 N 7 13 4 7 1012.7 1012.4 0.0
23/02:30pm 31.7 34.2 19.0 47 8.3 NNE 4 9 2 5 1012.9 1012.6 0.0
23/02:00pm 31.7 34.7 20.0 50 7.7 WSW 4 9 2 5 1013.3 1013.0 0.0
23/01:30pm 31.1 33.4 19.4 49 7.7 NE 6 13 3 7 1013.8 1013.5 0.0
23/01:00pm 31.1 33.7 20.1 52 7.3 N 6 9 3 5 1014.4 1014.1 0.0
23/12:30pm 30.1 33.1 20.1 55 6.6 SW 4 7 2 4 1014.9 1014.6 0.0
23/12:00pm 30.3 32.7 20.0 54 6.8 NE 7 13 4 7 1015.4 1015.1 0.0
23/11:30am 29.5 31.7 19.2 54 6.7 NNW 6 13 3 7 1015.9 1015.6 0.0
23/11:00am 29.2 30.3 17.1 48 7.6 N 7 11 4 6 1016.3 1016.0 0.0
23/10:30am 28.8 32.0 20.5 61 5.5 N 4 9 2 5 1016.9 1016.6 0.0
23/10:00am 27.8 31.0 20.4 64 4.9 NW 4 9 2 5 1017.2 1016.9 0.0
23/09:30am 27.0 31.7 22.6 77 3.0 ESE 2 6 1 3 1017.7 1017.4 0.0
23/09:00am 25.2 29.2 22.1 83 2.1 SSE 4 7 2 4 1017.6 1017.3 0.0
23/08:30am 24.4 28.6 22.5 89 1.3 SSE 4 6 2 3 1017.6 1017.3 0.0
23/08:00am 22.9 27.2 21.9 94 0.7 SSE 2 4 1 2 1017.3 1017.0 0.0
23/07:30am 21.7 26.3 21.7 100 0.0 CALM 0 0 0 0 1017.1 1016.8 0.0
23/07:00am 20.8 24.9 20.8 100 0.0 CALM 0 2 0 1 1016.8 1016.5 0.0
23/06:30am 20.8 24.5 20.8 100 0.0 SW 2 4 1 2 1016.4 1016.1 0.0
23/06:00am 20.8 24.9 20.8 100 0.0 CALM 0 0 0 0 1016.0 1015.7 0.0
23/05:30am 20.5 24.5 20.5 100 0.0 CALM 0 0 0 0 1016.0 1015.7 0.0
23/05:00am 20.5 24.4 20.3 99 0.1 CALM 0 0 0 0 1015.6 1015.3 0.0
23/04:30am 20.3 24.1 20.1 99 0.1 CALM 0 0 0 0 1015.6 1015.3 0.0
23/04:00am 20.6 24.5 20.4 99 0.1 CALM 0 0 0 0 1015.3 1015.0 0.0
23/03:30am 20.8 24.8 20.6 99 0.1 CALM 0 0 0 0 1015.5 1015.2 0.0
23/03:00am 20.8 24.8 20.6 99 0.1 CALM 0 0 0 0 1015.1 1014.8 0.0
23/02:30am 20.9 24.9 20.6 98 0.2 CALM 0 0 0 0 1014.9 1014.6 0.0
23/02:00am 21.3 25.5 21.0 98 0.2 CALM 0 0 0 0 1015.0 1014.7 0.0
23/01:30am 21.4 25.7 21.1 98 0.2 CALM 0 2 0 1 1015.3 1015.0 0.0
23/01:00am 21.6 24.8 21.3 98 0.2 N 6 7 3 4 1015.7 1015.4 0.0
23/12:30am 21.8 26.1 21.1 96 0.5 CALM 0 0 0 0 1016.5 1016.2 0.0
23/12:00am 22.1 26.5 21.4 96 0.5 CALM 0 0 0 0 1016.7 1016.4 0.0

Other formats

Comma delimited format used in spreadsheet applications
http://www.bom.gov.au/fwo/IDQ60801/IDQ60801.94566.axf

JavaScript Object Notation format (JSON) in row-major order
http://www.bom.gov.au/fwo/IDQ60801/IDQ60801.94566.json

Data quality

Most of these data are generated automatically and are frequently updated. Quality checks on data are not normally performed. It is possible for incorrect values to appear. Refer to information at About Latest Weather Observations and please check the disclaimer before using these data.